createdAt,value
2018-07-25T00:02:25.182Z,88.30
2018-07-25T00:04:52.690Z,88.70
2018-07-25T00:07:20.499Z,88.10
2018-07-25T00:09:48.438Z,87.60
2018-07-25T00:12:16.314Z,88.30
2018-07-25T00:14:44.472Z,87.30
2018-07-25T00:17:12.001Z,87.20
2018-07-25T00:19:39.922Z,87.30
2018-07-25T00:22:07.977Z,86.70
2018-07-25T00:27:04.446Z,88.60
2018-07-25T00:29:31.972Z,87.20
2018-07-25T00:32:00.402Z,86.70
2018-07-25T00:34:27.914Z,87.50
2018-07-25T00:36:55.411Z,88.40
2018-07-25T00:39:23.204Z,87.40
2018-07-25T00:41:50.700Z,87.50
2018-07-25T00:44:18.508Z,86.80
2018-07-25T00:46:46.051Z,86.70
2018-07-25T00:49:14.868Z,86.60
2018-07-25T00:51:42.386Z,87.10
2018-07-25T00:54:09.892Z,87.60
2018-07-25T00:56:37.417Z,86.70
2018-07-25T00:59:05.750Z,87.30
2018-07-25T01:01:33.254Z,86.20
2018-07-25T01:04:00.782Z,86.60
2018-07-25T01:06:28.373Z,87.00
2018-07-25T01:08:56.470Z,86.40
2018-07-25T01:11:24.590Z,86.70
2018-07-25T01:16:21.110Z,86.80
2018-07-25T01:18:48.596Z,86.90
2018-07-25T01:21:16.473Z,86.60
2018-07-25T01:23:44.562Z,86.30
2018-07-25T01:26:12.646Z,87.40
2018-07-25T01:31:08.070Z,86.30
2018-07-25T01:33:35.550Z,86.70
2018-07-25T01:36:03.103Z,86.50
2018-07-25T01:38:30.735Z,85.90
2018-07-25T01:40:58.290Z,86.70
2018-07-25T01:43:26.465Z,86.30
2018-07-25T01:45:54.033Z,86.10
2018-07-25T01:48:21.942Z,86.00
2018-07-25T01:50:49.912Z,85.80
2018-07-25T01:53:17.427Z,86.20
2018-07-25T01:55:45.286Z,86.60
2018-07-25T01:58:13.537Z,86.40
2018-07-25T02:00:41.326Z,86.70
2018-07-25T02:03:08.840Z,86.60
2018-07-25T02:05:36.398Z,86.10
2018-07-25T02:08:04.515Z,86.30
2018-07-25T02:10:36.569Z,86.10
2018-07-25T02:13:05.269Z,86.70
2018-07-25T02:15:32.809Z,85.90
2018-07-25T02:18:00.332Z,86.70
2018-07-25T02:20:27.847Z,86.30
2018-07-25T02:22:55.723Z,86.30
2018-07-25T02:25:23.724Z,86.90
2018-07-25T02:27:52.771Z,86.10
2018-07-25T02:30:20.923Z,86.50
2018-07-25T02:32:48.446Z,85.40
2018-07-25T02:35:15.955Z,86.80
2018-07-25T02:37:43.831Z,86.10
2018-07-25T02:40:11.324Z,86.20
2018-07-25T02:42:38.943Z,85.80
2018-07-25T02:45:06.944Z,86.30
2018-07-25T02:47:34.856Z,85.60
2018-07-25T02:50:02.803Z,85.50
2018-07-25T02:52:30.614Z,85.40
2018-07-25T02:54:58.578Z,86.80
2018-07-25T02:57:26.118Z,86.20
2018-07-25T02:59:54.182Z,86.00
2018-07-25T03:02:21.708Z,86.70
2018-07-25T03:04:49.860Z,86.70
2018-07-25T03:07:17.355Z,86.30
2018-07-25T03:09:45.129Z,86.20
2018-07-25T03:12:13.056Z,86.00
2018-07-25T03:14:40.606Z,86.30
2018-07-25T03:17:08.694Z,86.30
2018-07-25T03:19:36.294Z,86.50
2018-07-25T03:22:04.150Z,86.70
2018-07-25T03:24:32.412Z,86.40
2018-07-25T03:27:00.492Z,86.20
2018-07-25T03:29:27.993Z,85.80
2018-07-25T03:31:55.483Z,85.90
2018-07-25T03:34:23.059Z,86.30
2018-07-25T03:36:50.563Z,86.40
2018-07-25T03:39:18.143Z,86.50
2018-07-25T03:41:45.672Z,86.20
2018-07-25T03:44:13.943Z,86.40
2018-07-25T03:46:41.476Z,87.10
2018-07-25T03:49:09.587Z,86.10
2018-07-25T03:51:37.095Z,86.20
2018-07-25T03:54:05.207Z,86.50
2018-07-25T03:56:32.737Z,86.00
2018-07-25T03:59:00.259Z,86.10
2018-07-25T04:01:28.754Z,86.60
2018-07-25T04:03:56.952Z,86.30
2018-07-25T04:06:24.464Z,86.30
2018-07-25T04:08:52.351Z,86.10
2018-07-25T04:11:19.882Z,85.90
2018-07-25T04:13:47.912Z,86.00
2018-07-25T04:16:15.871Z,85.70
2018-07-25T04:18:43.394Z,85.70
2018-07-25T04:21:10.899Z,85.90
2018-07-25T04:23:38.856Z,85.90
2018-07-25T04:26:06.960Z,85.90
2018-07-25T04:28:34.823Z,85.60
2018-07-25T04:31:02.347Z,85.50
2018-07-25T04:33:29.915Z,85.40
2018-07-25T04:35:57.435Z,85.90
2018-07-25T04:38:25.002Z,85.40
2018-07-25T04:40:53.153Z,85.00
2018-07-25T04:43:20.664Z,84.90
2018-07-25T04:45:48.432Z,84.80
2018-07-25T04:48:16.464Z,84.80
2018-07-25T04:50:44.450Z,84.50
2018-07-25T04:53:12.356Z,84.30
2018-07-25T04:55:39.849Z,84.40
2018-07-25T04:58:07.362Z,84.00
2018-07-25T05:00:34.907Z,83.80
2018-07-25T05:03:02.422Z,83.50
2018-07-25T05:05:31.054Z,83.50
2018-07-25T05:07:59.050Z,83.20
2018-07-25T05:10:26.562Z,83.20
2018-07-25T05:12:54.522Z,82.80
2018-07-25T05:15:22.096Z,82.40
2018-07-25T05:17:49.604Z,81.60
2018-07-25T05:20:17.155Z,81.90
2018-07-25T05:22:45.496Z,81.60
2018-07-25T05:25:13.324Z,81.40
2018-07-25T05:27:41.192Z,80.80
2018-07-25T05:30:08.744Z,80.20
2018-07-25T05:32:36.270Z,80.70
2018-07-25T05:35:04.063Z,80.10
2018-07-25T05:42:27.334Z,80.40
2018-07-25T05:44:55.454Z,79.90
2018-07-25T05:47:23.433Z,80.50
2018-07-25T05:49:51.571Z,79.10
2018-07-25T05:52:19.138Z,79.60
2018-07-25T05:54:47.243Z,79.20
2018-07-25T05:57:14.729Z,78.20
2018-07-25T05:59:42.234Z,77.90
2018-07-25T06:02:10.127Z,77.30
2018-07-25T06:04:38.267Z,77.60
2018-07-25T06:07:06.310Z,76.90
2018-07-25T06:09:33.876Z,78.00
2018-07-25T06:12:02.148Z,76.70
2018-07-25T06:14:29.679Z,76.80
2018-07-25T06:16:57.223Z,75.60
2018-07-25T06:19:24.750Z,75.50
2018-07-25T06:21:52.814Z,75.50
2018-07-25T06:29:17.083Z,75.30
2018-07-25T06:31:44.578Z,75.20
2018-07-25T06:34:12.123Z,74.40
2018-07-25T06:36:40.592Z,74.40
2018-07-25T06:39:09.990Z,73.90
2018-07-25T06:41:38.547Z,73.90
2018-07-25T06:44:06.703Z,73.30
2018-07-25T06:46:34.531Z,72.70
2018-07-25T06:49:02.488Z,72.00
2018-07-25T06:51:30.000Z,72.60
2018-07-25T06:53:57.944Z,71.80
2018-07-25T06:56:25.455Z,70.90
2018-07-25T06:58:52.974Z,71.00
2018-07-25T07:01:21.315Z,71.10
2018-07-25T07:03:49.771Z,71.10
2018-07-25T07:06:17.312Z,70.50
2018-07-25T07:08:44.811Z,70.90
2018-07-25T07:11:12.849Z,70.90
2018-07-25T07:13:40.712Z,70.20
2018-07-25T07:16:08.243Z,69.20
2018-07-25T07:18:35.753Z,69.50
2018-07-25T07:21:03.315Z,68.60
2018-07-25T07:23:31.344Z,67.90
2018-07-25T07:25:59.920Z,68.10
2018-07-25T07:30:57.104Z,67.80
2018-07-25T07:33:25.072Z,67.90
2018-07-25T07:35:52.576Z,68.00
2018-07-25T07:38:20.078Z,67.60
2018-07-25T07:40:48.320Z,66.60
2018-07-25T07:43:16.323Z,65.40
2018-07-25T07:45:44.171Z,67.00
2018-07-25T07:48:11.795Z,66.50
2018-07-25T07:50:39.313Z,66.20
2018-07-25T07:53:06.939Z,64.80
2018-07-25T07:55:35.235Z,63.70
2018-07-25T07:58:02.820Z,63.60
2018-07-25T08:00:30.735Z,62.50
2018-07-25T08:02:59.123Z,63.70
2018-07-25T08:05:26.696Z,62.60
2018-07-25T08:07:54.211Z,63.20
2018-07-25T08:10:21.767Z,64.10
2018-07-25T08:12:49.787Z,63.00
2018-07-25T08:15:17.323Z,62.70
2018-07-25T08:17:44.924Z,63.10
2018-07-25T08:20:12.823Z,63.50
2018-07-25T08:22:40.712Z,62.50
2018-07-25T08:25:08.839Z,62.40
2018-07-25T08:27:36.723Z,63.30
2018-07-25T08:32:32.816Z,61.80
2018-07-25T08:35:00.832Z,62.80
2018-07-25T08:37:28.704Z,62.50
2018-07-25T08:39:56.616Z,63.20
2018-07-25T08:42:24.132Z,63.70
2018-07-25T08:44:52.048Z,63.20
2018-07-25T08:47:19.542Z,62.80
2018-07-25T08:49:47.107Z,61.10
2018-07-25T08:52:14.623Z,61.90
2018-07-25T08:54:42.875Z,60.90
2018-07-25T08:57:11.363Z,61.30
2018-07-25T08:59:38.912Z,62.20
2018-07-25T09:02:06.559Z,59.90
2018-07-25T09:04:34.120Z,60.80
2018-07-25T09:07:02.244Z,60.20
2018-07-25T09:09:29.834Z,60.60
2018-07-25T09:11:58.191Z,60.10
2018-07-25T09:16:53.648Z,60.80
2018-07-25T09:19:21.154Z,60.30
2018-07-25T09:21:49.003Z,59.90
2018-07-25T09:24:16.512Z,59.10
2018-07-25T09:26:44.502Z,59.20
2018-07-25T09:29:12.775Z,59.50
2018-07-25T09:39:07.231Z,58.80
2018-07-25T09:41:34.770Z,58.80
2018-07-25T09:44:02.810Z,56.90
2018-07-25T09:46:30.477Z,59.70
2018-07-25T09:48:59.010Z,58.60
2018-07-25T09:53:54.379Z,57.80
2018-07-25T09:56:22.581Z,57.90
2018-07-25T09:58:50.155Z,57.60
2018-07-25T10:01:17.657Z,57.70
2018-07-25T10:03:45.176Z,57.60
2018-07-25T10:06:13.431Z,57.40
2018-07-25T10:08:41.536Z,57.00
2018-07-25T10:11:09.105Z,57.30
2018-07-25T10:13:36.936Z,56.60
2018-07-25T10:16:04.843Z,56.70
2018-07-25T10:18:32.355Z,57.50
2018-07-25T10:25:56.114Z,56.80
2018-07-25T10:28:23.654Z,57.20
2018-07-25T10:30:51.216Z,56.00
2018-07-25T10:33:19.232Z,56.00
2018-07-25T10:35:47.144Z,54.70
2018-07-25T10:40:42.147Z,49.80
2018-07-25T10:43:10.269Z,48.70
2018-07-25T10:45:38.250Z,49.20
2018-07-25T10:48:05.858Z,48.60
2018-07-25T10:50:33.393Z,47.10
2018-07-25T10:53:01.633Z,48.90
2018-07-25T10:57:56.672Z,48.30
2018-07-25T11:00:24.228Z,48.90
2018-07-25T11:02:51.747Z,49.90
2018-07-25T11:05:19.737Z,48.60
2018-07-25T11:07:48.040Z,49.40
2018-07-25T11:12:43.733Z,48.40
2018-07-25T11:15:11.888Z,48.60
2018-07-25T11:17:39.440Z,47.30
2018-07-25T11:20:07.136Z,45.70
2018-07-25T11:22:35.376Z,45.20
2018-07-25T11:25:03.417Z,48.00
2018-07-25T11:27:31.536Z,46.80
2018-07-25T11:29:59.449Z,47.20
2018-07-25T11:32:27.001Z,48.20
2018-07-25T11:34:54.880Z,47.90
2018-07-25T11:37:22.388Z,46.80
2018-07-25T11:39:49.888Z,48.10
2018-07-25T11:42:17.872Z,48.80
2018-07-25T11:44:45.924Z,47.80
2018-07-25T11:47:13.457Z,48.20
2018-07-25T11:49:41.328Z,48.40
2018-07-25T11:52:08.837Z,48.40
2018-07-25T11:54:36.987Z,48.10
2018-07-25T11:57:04.603Z,46.70
2018-07-25T11:59:32.117Z,47.50
2018-07-25T12:01:59.971Z,45.00
2018-07-25T12:04:27.995Z,43.80
2018-07-25T12:06:55.547Z,45.40
2018-07-25T12:09:23.083Z,44.10
2018-07-25T12:11:50.648Z,43.70
2018-07-25T12:14:19.122Z,43.90
2018-07-25T12:16:46.699Z,44.90
2018-07-25T12:19:14.640Z,45.50
2018-07-25T12:21:43.368Z,44.60
2018-07-25T12:24:10.888Z,42.80
2018-07-25T12:26:39.008Z,43.90
2018-07-25T12:29:07.129Z,43.60
2018-07-25T12:31:34.999Z,44.30
2018-07-25T12:34:02.602Z,44.10
2018-07-25T12:36:30.127Z,43.70
2018-07-25T12:38:58.083Z,43.50
2018-07-25T12:41:25.618Z,43.40
2018-07-25T12:43:53.753Z,42.90
2018-07-25T12:46:21.268Z,43.30
2018-07-25T12:48:49.176Z,43.80
2018-07-25T12:51:17.119Z,41.70
2018-07-25T12:53:44.757Z,42.70
2018-07-25T12:56:12.396Z,42.10
2018-07-25T12:58:40.289Z,42.50
2018-07-25T13:01:08.871Z,41.20
2018-07-25T13:03:36.603Z,40.70
2018-07-25T13:06:04.938Z,42.80
2018-07-25T13:08:32.479Z,40.80
2018-07-25T13:11:00.937Z,41.60
2018-07-25T13:13:29.135Z,40.60
2018-07-25T13:15:56.805Z,40.10
2018-07-25T13:18:25.372Z,40.90
2018-07-25T13:20:52.962Z,41.60
2018-07-25T13:23:20.808Z,41.80
2018-07-25T13:25:49.537Z,39.60
2018-07-25T13:28:17.981Z,40.30
2018-07-25T13:30:45.495Z,41.30
2018-07-25T13:33:13.128Z,41.30
2018-07-25T13:35:41.456Z,40.50
2018-07-25T13:38:09.009Z,39.60
2018-07-25T13:40:36.676Z,39.40
2018-07-25T13:43:04.603Z,40.00
2018-07-25T13:45:32.785Z,39.30
2018-07-25T13:48:00.478Z,39.40
2018-07-25T13:52:55.632Z,38.60
2018-07-25T13:55:23.176Z,38.90
2018-07-25T13:57:51.474Z,39.10
2018-07-25T14:00:19.044Z,38.60
2018-07-25T14:02:46.580Z,39.30
2018-07-25T14:05:14.799Z,40.60
2018-07-25T14:07:42.339Z,37.90
2018-07-25T14:10:09.865Z,35.80
2018-07-25T14:12:37.919Z,35.60
2018-07-25T14:15:05.912Z,35.30
2018-07-25T14:17:33.937Z,35.80
2018-07-25T14:20:01.467Z,33.50
2018-07-25T14:22:29.408Z,35.00
2018-07-25T14:24:57.194Z,34.60
2018-07-25T14:27:25.432Z,34.00
2018-07-25T14:29:53.555Z,33.30
2018-07-25T14:32:21.212Z,34.30
2018-07-25T14:34:49.116Z,34.00
2018-07-25T14:37:16.624Z,32.50
2018-07-25T14:39:44.690Z,32.80
2018-07-25T14:42:12.592Z,34.20
2018-07-25T14:44:40.559Z,34.90
2018-07-25T14:47:08.877Z,34.10
2018-07-25T14:49:36.360Z,34.10
2018-07-25T14:52:04.648Z,33.00
2018-07-25T14:54:32.635Z,35.90
2018-07-25T14:57:00.650Z,36.20
2018-07-25T14:59:28.142Z,37.30
2018-07-25T15:01:55.667Z,39.40
2018-07-25T15:04:23.215Z,40.60
2018-07-25T15:06:50.763Z,41.70
2018-07-25T15:09:18.352Z,42.40
2018-07-25T15:11:45.976Z,43.80
2018-07-25T15:14:13.888Z,45.90
2018-07-25T15:16:42.244Z,47.20
2018-07-25T15:19:10.313Z,48.80
2018-07-25T15:21:38.232Z,48.50
2018-07-25T15:24:06.864Z,50.80
2018-07-25T15:26:34.857Z,59.40
2018-07-25T15:29:03.795Z,64.80
2018-07-25T15:31:31.711Z,66.20
2018-07-25T15:33:59.845Z,67.20
2018-07-25T15:36:40.846Z,71.00
2018-07-25T15:39:12.697Z,72.50
2018-07-25T15:41:41.156Z,75.50
2018-07-25T15:44:09.556Z,80.00
2018-07-25T15:46:37.167Z,79.00
2018-07-25T15:49:05.080Z,80.70
2018-07-25T15:51:32.705Z,79.50
2018-07-25T15:56:28.084Z,81.60
2018-07-25T15:58:55.771Z,82.00
2018-07-25T16:01:23.952Z,82.10
2018-07-25T16:03:52.876Z,83.50
2018-07-25T16:06:21.560Z,82.80
2018-07-25T16:08:50.043Z,82.50
2018-07-25T16:11:18.350Z,83.20
2018-07-25T16:13:47.008Z,83.90
2018-07-25T16:16:15.544Z,83.80
2018-07-25T16:18:44.774Z,84.50
2018-07-25T16:23:41.398Z,84.50
2018-07-25T16:26:10.139Z,85.00
2018-07-25T16:28:38.643Z,85.40
2018-07-25T16:31:07.696Z,86.10
2018-07-25T16:33:35.755Z,85.80
2018-07-25T16:36:04.375Z,85.60
2018-07-25T16:38:34.156Z,84.50
2018-07-25T16:41:01.848Z,84.10
2018-07-25T16:43:30.310Z,84.50
2018-07-25T16:45:58.213Z,84.00
2018-07-25T16:48:26.131Z,81.70
2018-07-25T16:50:54.208Z,83.00
2018-07-25T16:53:23.512Z,82.90
2018-07-25T16:55:51.960Z,82.10
2018-07-25T16:58:20.170Z,81.50
2018-07-25T17:00:47.914Z,80.00
2018-07-25T17:03:15.737Z,79.30
2018-07-25T17:05:44.188Z,76.90
2018-07-25T17:08:12.659Z,76.90
2018-07-25T17:10:41.099Z,76.30
2018-07-25T17:13:09.480Z,76.80
2018-07-25T17:15:38.605Z,77.30
2018-07-25T17:18:07.052Z,78.60
2018-07-25T17:20:35.407Z,78.30
2018-07-25T17:23:05.240Z,78.20
2018-07-25T17:25:33.599Z,78.30
2018-07-25T17:28:02.030Z,78.20
2018-07-25T17:30:30.206Z,77.80
2018-07-25T17:32:58.139Z,77.60
2018-07-25T17:35:26.873Z,76.80
2018-07-25T17:37:54.449Z,77.00
2018-07-25T17:40:21.993Z,77.10
2018-07-25T17:42:49.619Z,76.90
2018-07-25T17:45:17.554Z,77.00
2018-07-25T17:47:45.784Z,77.20
2018-07-25T17:50:13.315Z,77.40
2018-07-25T17:52:41.221Z,77.40
2018-07-25T17:55:08.780Z,77.60
2018-07-25T17:57:37.504Z,77.90
2018-07-25T18:00:07.730Z,78.20
2018-07-25T18:02:35.490Z,78.60
2018-07-25T18:05:03.398Z,78.50
2018-07-25T18:07:31.741Z,78.90
2018-07-25T18:09:59.953Z,79.00
2018-07-25T18:12:28.835Z,79.60
2018-07-25T18:14:57.389Z,80.30
2018-07-25T18:17:26.102Z,80.50
2018-07-25T18:19:54.078Z,80.30
2018-07-25T18:22:22.643Z,80.80
2018-07-25T18:24:50.643Z,80.60
2018-07-25T18:27:19.535Z,80.50
2018-07-25T18:29:48.552Z,80.50
2018-07-25T18:32:17.054Z,80.40
2018-07-25T18:34:45.382Z,81.30
2018-07-25T18:37:14.193Z,80.60
2018-07-25T18:39:42.882Z,81.00
2018-07-25T18:42:10.820Z,81.90
2018-07-25T18:44:39.342Z,81.00
2018-07-25T18:47:09.049Z,80.50
2018-07-25T18:49:37.232Z,80.20
2018-07-25T18:52:05.534Z,80.20
2018-07-25T18:54:33.422Z,80.60
2018-07-25T19:01:57.014Z,80.20
2018-07-25T19:04:25.681Z,81.30
2018-07-25T19:06:54.055Z,80.70
2018-07-25T19:09:22.747Z,80.70
2018-07-25T19:11:51.758Z,80.80
2018-07-25T19:14:27.432Z,80.40
2018-07-25T19:16:55.283Z,80.80
2018-07-25T19:19:24.147Z,80.60
2018-07-25T19:21:53.097Z,80.60
2018-07-25T19:24:21.865Z,80.30
2018-07-25T19:26:50.633Z,80.20
2018-07-25T19:29:18.596Z,80.50
2018-07-25T19:31:47.115Z,80.90
2018-07-25T19:34:14.623Z,81.10
2018-07-25T19:36:42.826Z,81.80
2018-07-25T19:39:11.056Z,81.60
2018-07-25T19:41:38.658Z,81.30
2018-07-25T19:44:06.657Z,81.40
2018-07-25T19:46:34.267Z,81.30
2018-07-25T19:49:01.817Z,81.90
2018-07-25T19:51:29.494Z,81.70
2018-07-25T19:53:57.008Z,81.90
2018-07-25T19:56:24.598Z,81.90
2018-07-25T19:58:52.143Z,81.70
2018-07-25T20:01:20.403Z,82.60
2018-07-25T20:06:15.979Z,82.10
2018-07-25T20:08:43.953Z,82.00
2018-07-25T20:11:11.839Z,82.30
2018-07-25T20:13:45.304Z,82.40
2018-07-25T20:16:12.818Z,83.50
2018-07-25T20:18:41.056Z,82.80
2018-07-25T20:21:09.024Z,82.70
2018-07-25T20:23:37.015Z,82.70
2018-07-25T20:26:05.211Z,82.90
2018-07-25T20:28:33.083Z,82.70
2018-07-25T20:31:00.947Z,83.00
2018-07-25T20:33:28.475Z,83.50
2018-07-25T20:35:56.096Z,83.10
2018-07-25T20:38:24.382Z,83.40
2018-07-25T20:40:52.604Z,83.50
2018-07-25T20:43:20.609Z,83.50
2018-07-25T20:45:48.680Z,83.80
2018-07-25T20:48:16.200Z,83.00
2018-07-25T20:50:43.792Z,82.90
2018-07-25T20:53:11.439Z,82.90
2018-07-25T20:55:39.003Z,82.80
2018-07-25T20:58:06.712Z,82.80
2018-07-25T21:00:35.722Z,82.80
2018-07-25T21:03:05.002Z,82.70
2018-07-25T21:05:34.699Z,83.10
2018-07-25T21:08:02.981Z,82.70
2018-07-25T21:10:31.920Z,82.70
2018-07-25T21:12:59.787Z,82.60
2018-07-25T21:15:27.304Z,83.00
2018-07-25T21:17:54.871Z,82.60
2018-07-25T21:20:23.347Z,82.80
2018-07-25T21:22:52.223Z,82.50
2018-07-25T21:25:20.479Z,83.20
2018-07-25T21:27:48.703Z,82.70
2018-07-25T21:30:16.611Z,83.20
2018-07-25T21:32:44.279Z,82.90
2018-07-25T21:35:12.795Z,82.60
2018-07-25T21:37:40.817Z,82.90
2018-07-25T21:40:08.370Z,82.60
2018-07-25T21:42:35.866Z,82.90
2018-07-25T21:45:05.345Z,82.80
2018-07-25T21:47:32.850Z,82.90
2018-07-25T21:50:01.057Z,82.90
2018-07-25T21:52:28.590Z,82.70
2018-07-25T21:54:56.547Z,83.20
2018-07-25T21:57:24.488Z,83.20
2018-07-25T22:02:19.840Z,83.00
2018-07-25T22:04:47.875Z,82.70
2018-07-25T22:07:16.632Z,82.60
2018-07-25T22:09:44.699Z,82.70
2018-07-25T22:12:12.699Z,83.30
2018-07-25T22:14:40.195Z,83.80
2018-07-25T22:17:08.272Z,85.30
2018-07-25T22:19:35.801Z,87.40
2018-07-25T22:22:04.080Z,86.20
2018-07-25T22:24:31.922Z,86.40
2018-07-25T22:26:59.789Z,88.10
2018-07-25T22:29:27.736Z,88.20
2018-07-25T22:31:55.283Z,89.00
2018-07-25T22:34:22.824Z,88.20
2018-07-25T22:36:50.747Z,87.80
2018-07-25T22:39:18.607Z,88.30
2018-07-25T22:41:46.811Z,88.10
2018-07-25T22:44:14.856Z,88.50
2018-07-25T22:49:10.232Z,89.90
2018-07-25T22:51:37.769Z,88.90
2018-07-25T22:54:05.867Z,89.20
2018-07-25T22:56:33.392Z,88.90
2018-07-25T22:59:00.912Z,89.50
2018-07-25T23:01:28.874Z,90.50
2018-07-25T23:03:57.832Z,89.00
2018-07-25T23:06:25.336Z,91.30
2018-07-25T23:08:52.839Z,89.70
2018-07-25T23:11:20.382Z,89.80
2018-07-25T23:13:49.062Z,90.50
2018-07-25T23:16:17.131Z,89.60
2018-07-25T23:18:45.571Z,89.40
2018-07-25T23:21:14.067Z,90.20
2018-07-25T23:23:42.962Z,92.30
2018-07-25T23:26:11.256Z,91.20
2018-07-25T23:28:39.303Z,91.00
2018-07-25T23:31:06.808Z,90.70
2018-07-25T23:33:34.753Z,90.90
2018-07-25T23:36:02.275Z,90.00
2018-07-25T23:38:30.602Z,91.20
2018-07-25T23:40:58.873Z,93.60
2018-07-25T23:43:26.887Z,92.00
2018-07-25T23:45:54.410Z,92.60
2018-07-25T23:48:22.235Z,93.60
2018-07-25T23:50:49.775Z,94.30
2018-07-25T23:53:17.744Z,93.80
2018-07-25T23:55:45.261Z,93.10
2018-07-25T23:58:12.775Z,93.90
